Lakewood, Wisconsin
Current Conditions -  °F | °C
As of 10:55 AM on Wednesday 22 Oct 2014 (Local Time) from KAIG Reporting Station
Clear Clear  
Wind Chill: 34°   Ceiling: Unl
Heat Index: 40°   Visibility: 10mi
Dew Point: 38°   Wind: 9mph
Humidity: 93%   Direction: 160°SSE
Pressure: 30.35"   Gusts: NA
Location:  45.3°N, 88.52°W
Report Text: KAIG 221555Z AUTO 16008KT 10SM CLR 04/03 A3035 RMK AO2 T00440034
Loading
Personal Weather Stations






























Interactive Weather Map
Tropical Storm Tracking
New forecast layout! Learn more

10-Day Weather Forecast

Advertisements
Track Severe Weather on mobile